Time;durP1;ratioP1;P1;durP2;ratioP2;P2;SDS_P1;SDS_P2;PMS_P1;PMS_P2;Temp;Humidity;BMP_temperature;BMP_pressure;BME280_temperature;BME280_humidity;BME280_pressure;Samples;Min_cycle;Max_cycle;Signal;HPM_P1;HPM_P2
2021/03/18 00:02:28;;;;;;;2.87;1.87;;;20.60;47.50;;;;;;10413292;28;20217;-27
2021/03/18 00:07:51;;;;;;;2.33;1.90;;;20.60;47.50;;;;;;10415225;28;20580;-28
2021/03/18 00:13:14;;;;;;;2.00;1.70;;;20.60;47.50;;;;;;10415044;28;20222;-29
2021/03/18 00:18:39;;;;;;;2.93;1.87;;;20.50;47.60;;;;;;10431597;28;20209;-28
2021/03/18 00:24:02;;;;;;;1.87;1.73;;;20.50;47.70;;;;;;10411425;28;20225;-29
2021/03/18 00:29:24;;;;;;;2.10;1.80;;;20.50;47.70;;;;;;10415124;28;20202;-28
2021/03/18 00:34:45;;;;;;;1.90;1.60;;;20.50;47.60;;;;;;10414840;28;20605;-32
2021/03/18 00:40:11;;;;;;;2.33;1.70;;;20.50;47.60;;;;;;10413961;28;20201;-27
2021/03/18 00:45:36;;;;;;;2.97;1.90;;;20.50;47.70;;;;;;10410860;28;20212;-27
2021/03/18 00:50:59;;;;;;;1.80;1.60;;;20.40;47.70;;;;;;10394987;28;20232;-29
2021/03/18 00:56:22;;;;;;;2.40;1.93;;;20.40;47.70;;;;;;10443216;28;20193;-31
2021/03/18 01:01:44;;;;;;;3.20;2.03;;;20.40;47.60;;;;;;10454029;28;20227;-29
2021/03/18 01:07:05;;;;;;;2.00;1.30;;;20.40;47.60;;;;;;10454002;28;20243;-29
2021/03/18 01:12:28;;;;;;;1.83;1.47;;;20.40;47.70;;;;;;10453840;28;20224;-27
2021/03/18 01:17:49;;;;;;;1.90;1.60;;;20.40;47.80;;;;;;10437605;28;20216;-28
2021/03/18 01:23:11;;;;;;;1.50;1.40;;;20.40;47.70;;;;;;10409960;28;20221;-29
2021/03/18 01:28:35;;;;;;;2.60;1.70;;;20.40;47.60;;;;;;10412561;28;20221;-27
2021/03/18 01:33:56;;;;;;;1.57;1.40;;;20.40;47.70;;;;;;10411769;28;20217;-30
2021/03/18 01:39:18;;;;;;;1.90;1.67;;;20.30;47.80;;;;;;10411424;28;20209;-27
2021/03/18 01:44:41;;;;;;;1.40;1.23;;;20.30;47.80;;;;;;10410453;28;20708;-30
2021/03/18 01:50:03;;;;;;;2.00;1.40;;;20.30;47.70;;;;;;10435885;28;20201;-28
2021/03/18 01:55:29;;;;;;;2.03;1.47;;;20.30;47.60;;;;;;10412395;28;20201;-28
2021/03/18 02:00:53;;;;;;;1.60;1.50;;;20.30;47.70;;;;;;10410150;28;20229;-28
2021/03/18 02:06:16;;;;;;;2.00;1.47;;;20.30;47.80;;;;;;10401399;28;20214;-30
2021/03/18 02:11:37;;;;;;;1.70;1.30;;;20.30;47.80;;;;;;10370485;28;20218;-29
2021/03/18 02:17:04;;;;;;;1.80;1.30;;;20.30;47.80;;;;;;10376199;28;20192;-28
2021/03/18 02:22:54;;;;;;;1.87;1.30;;;20.30;47.60;;;;;;10451121;28;20218;-28
2021/03/18 02:28:54;;;;;;;1.20;1.03;;;20.30;47.70;;;;;;10410503;28;20195;-28
2021/03/18 02:34:41;;;;;;;1.30;1.20;;;20.20;47.70;;;;;;10369406;28;20243;-27
2021/03/18 02:40:08;;;;;;;2.07;1.33;;;20.20;47.70;;;;;;10400114;28;20203;-26
2021/03/18 02:45:33;;;;;;;1.67;1.20;;;20.20;47.80;;;;;;10407127;28;20617;-28
2021/03/18 02:50:56;;;;;;;1.30;1.10;;;20.20;47.80;;;;;;10450194;28;20231;-28
2021/03/18 02:56:21;;;;;;;1.80;1.27;;;20.20;47.70;;;;;;10464520;28;20185;-26
2021/03/18 03:01:43;;;;;;;1.73;1.40;;;20.20;47.90;;;;;;10435805;28;20276;-29
2021/03/18 03:07:06;;;;;;;1.20;1.10;;;20.10;47.90;;;;;;10383657;28;20256;-30
2021/03/18 03:12:31;;;;;;;1.87;1.37;;;20.20;47.90;;;;;;10382974;28;20244;-29
2021/03/18 03:17:55;;;;;;;1.07;0.97;;;20.20;47.80;;;;;;10403038;28;20668;-28
2021/03/18 03:23:19;;;;;;;1.73;1.20;;;20.20;47.80;;;;;;10452881;28;20221;-27
2021/03/18 03:28:42;;;;;;;1.67;1.20;;;20.20;47.90;;;;;;10422874;28;20204;-28
2021/03/18 03:34:04;;;;;;;1.07;1.00;;;20.10;47.90;;;;;;10392848;28;20216;-28
2021/03/18 03:39:26;;;;;;;1.10;1.00;;;20.10;47.90;;;;;;10382276;28;20701;-28
2021/03/18 03:44:49;;;;;;;1.10;0.93;;;20.10;47.80;;;;;;10405795;28;20246;-28
2021/03/18 03:50:14;;;;;;;1.10;1.00;;;20.20;47.80;;;;;;10386250;28;20253;-28
2021/03/18 03:55:45;;;;;;;1.80;1.37;;;20.20;47.80;;;;;;10438031;23;20252;-25
2021/03/18 04:01:15;;;;;;;1.47;1.13;;;20.10;47.80;;;;;;10407944;28;20577;-25
2021/03/18 04:06:38;;;;;;;1.00;0.90;;;20.10;47.90;;;;;;10416186;28;20221;-26
2021/03/18 04:12:02;;;;;;;1.30;1.03;;;20.10;47.90;;;;;;10415874;28;20552;-25
2021/03/18 04:17:26;;;;;;;1.33;1.10;;;20.10;47.80;;;;;;10415956;28;20204;-25
2021/03/18 04:22:51;;;;;;;1.20;1.10;;;20.10;47.80;;;;;;10409209;28;20187;-25
2021/03/18 04:28:13;;;;;;;1.47;1.30;;;20.20;47.80;;;;;;10374740;28;20215;-25
2021/03/18 04:33:37;;;;;;;1.10;1.00;;;20.10;47.90;;;;;;10400194;28;20214;-26
2021/03/18 04:39:00;;;;;;;1.63;1.27;;;20.10;48.00;;;;;;10414388;28;20194;-24
2021/03/18 04:44:22;;;;;;;1.07;0.90;;;20.10;47.80;;;;;;10414918;28;20231;-25
2021/03/18 04:49:46;;;;;;;1.17;1.03;;;20.30;47.50;;;;;;10412330;28;20684;-26
2021/03/18 04:55:10;;;;;;;1.00;0.90;;;20.30;47.30;;;;;;10415226;28;20232;-25
2021/03/18 05:00:33;;;;;;;1.07;0.97;;;20.40;47.20;;;;;;10414210;28;20696;-25
2021/03/18 05:05:58;;;;;;;1.07;0.97;;;20.40;47.00;;;;;;10413863;28;20213;-25
2021/03/18 05:11:21;;;;;;;0.97;0.83;;;20.40;47.00;;;;;;10413455;28;20663;-25
2021/03/18 05:16:43;;;;;;;0.83;0.83;;;20.40;47.10;;;;;;10412987;28;20593;-25
2021/03/18 05:22:06;;;;;;;0.80;0.80;;;20.30;47.10;;;;;;10371902;28;20203;-25
2021/03/18 05:27:27;;;;;;;1.63;0.93;;;20.40;47.00;;;;;;10408532;28;20240;-25
2021/03/18 05:32:49;;;;;;;1.03;0.90;;;20.40;46.90;;;;;;10394053;28;20194;-24
2021/03/18 05:38:14;;;;;;;1.27;0.73;;;20.50;46.80;;;;;;10371694;28;20209;-25
2021/03/18 05:43:35;;;;;;;2.30;0.80;;;20.50;46.80;;;;;;10371235;28;20232;-24
2021/03/18 05:48:58;;;;;;;1.00;0.90;;;20.50;46.70;;;;;;10393924;28;20228;-24
2021/03/18 05:54:23;;;;;;;0.90;0.90;;;20.60;46.70;;;;;;10393736;28;20605;-24
2021/03/18 05:59:46;;;;;;;1.00;0.90;;;20.60;46.60;;;;;;10411285;28;20197;-24
2021/03/18 06:05:10;;;;;;;0.97;0.90;;;20.60;46.60;;;;;;10410410;28;20222;-24
2021/03/18 06:10:32;;;;;;;1.83;0.80;;;20.60;46.50;;;;;;10411546;28;20200;-25
2021/03/18 06:15:54;;;;;;;0.63;0.63;;;20.70;46.50;;;;;;10411441;28;20225;-25
2021/03/18 06:21:16;;;;;;;0.77;0.77;;;20.60;46.50;;;;;;10410134;28;20553;-24
2021/03/18 06:26:39;;;;;;;2.97;1.30;;;20.60;46.60;;;;;;10407613;28;20224;-25
2021/03/18 06:32:18;;;;;;;4.07;1.87;;;20.60;46.50;;;;;;10410301;28;20206;-25
2021/03/18 06:37:42;;;;;;;6.00;2.43;;;20.60;46.40;;;;;;10407458;28;20244;-25
2021/03/18 06:43:04;;;;;;;7.57;3.33;;;20.60;46.50;;;;;;10409738;28;20311;-24
2021/03/18 06:48:38;;;;;;;16.10;4.67;;;20.70;46.50;;;;;;10409771;28;20681;-24
2021/03/18 06:54:00;;;;;;;19.83;5.50;;;20.70;46.50;;;;;;10373110;28;20270;-22
2021/03/18 06:59:26;;;;;;;17.07;4.37;;;20.70;46.50;;;;;;10415179;28;20197;-25
2021/03/18 07:04:50;;;;;;;16.50;5.27;;;20.90;46.40;;;;;;10399119;28;20225;-24
2021/03/18 07:10:12;;;;;;;18.10;5.20;;;21.10;46.20;;;;;;10437322;28;20201;-24
2021/03/18 07:15:37;;;;;;;12.97;4.97;;;21.20;45.90;;;;;;10426152;28;20214;-23
2021/03/18 07:21:02;;;;;;;16.40;5.83;;;21.40;45.50;;;;;;10405588;28;20244;-24
2021/03/18 07:26:24;;;;;;;15.57;5.70;;;21.40;45.10;;;;;;10409104;28;20225;-24
2021/03/18 07:31:49;;;;;;;13.40;4.63;;;21.50;44.80;;;;;;10409103;28;20628;-25
2021/03/18 07:37:12;;;;;;;14.30;5.17;;;21.60;44.60;;;;;;10413530;28;20701;-19
2021/03/18 07:42:34;;;;;;;12.67;4.17;;;21.60;45.30;;;;;;10409802;28;20194;-18
2021/03/18 07:47:59;;;;;;;11.53;4.10;;;21.50;44.40;;;;;;10412290;28;20206;-17
2021/03/18 07:53:23;;;;;;;11.20;4.60;;;21.50;44.50;;;;;;10417529;28;20226;-25
2021/03/18 07:58:46;;;;;;;11.43;4.20;;;21.50;44.80;;;;;;10411005;28;20193;-23
2021/03/18 08:04:11;;;;;;;11.77;4.10;;;21.50;44.90;;;;;;10411783;28;20593;-23
2021/03/18 08:09:52;;;;;;;9.40;3.93;;;21.60;44.50;;;;;;10415843;28;20201;-23
2021/03/18 08:15:30;;;;;;;9.30;3.60;;;21.60;44.30;;;;;;10409022;28;20210;-22
2021/03/18 08:21:02;;;;;;;9.50;4.03;;;21.70;44.30;;;;;;10375461;28;20688;-23
2021/03/18 08:26:46;;;;;;;6.97;3.57;;;21.70;44.20;;;;;;10395074;28;20624;-23
2021/03/18 08:32:09;;;;;;;9.77;3.67;;;21.70;44.10;;;;;;10400013;28;20247;-22
2021/03/18 08:37:38;;;;;;;9.03;3.47;;;21.80;44.20;;;;;;10413928;28;20220;-23
2021/03/18 08:43:05;;;;;;;5.63;3.17;;;21.80;44.10;;;;;;10414686;28;20661;-22
2021/03/18 08:48:27;;;;;;;8.13;4.13;;;21.90;44.20;;;;;;10414040;28;20221;-22
2021/03/18 08:53:50;;;;;;;8.10;4.13;;;21.90;44.20;;;;;;10424869;28;20723;-23
2021/03/18 08:59:11;;;;;;;8.77;3.60;;;21.90;44.20;;;;;;10406883;28;20202;-23
2021/03/18 09:04:36;;;;;;;7.33;3.57;;;21.90;44.20;;;;;;10413553;28;20213;-22
2021/03/18 09:10:09;;;;;;;6.40;3.50;;;21.90;44.20;;;;;;10413072;28;20201;-22
2021/03/18 09:15:32;;;;;;;8.17;3.40;;;21.80;44.20;;;;;;10413858;28;20214;-22
2021/03/18 09:20:59;;;;;;;6.00;2.80;;;21.90;44.40;;;;;;10407843;28;20210;-22
2021/03/18 09:26:22;;;;;;;7.40;3.20;;;21.90;44.40;;;;;;10408055;28;20228;-23
2021/03/18 09:31:44;;;;;;;7.77;3.47;;;21.80;44.20;;;;;;10404156;28;20201;-22
2021/03/18 09:37:06;;;;;;;9.00;3.83;;;21.90;44.30;;;;;;10405407;28;20210;-22
2021/03/18 09:42:28;;;;;;;6.70;3.40;;;21.90;44.20;;;;;;10411071;28;20194;-21
2021/03/18 09:47:51;;;;;;;6.90;3.70;;;21.90;44.20;;;;;;10412103;28;20220;-21
2021/03/18 09:53:13;;;;;;;5.80;3.50;;;22.00;44.20;;;;;;10426408;23;20221;-22
2021/03/18 09:58:36;;;;;;;5.50;3.10;;;22.00;44.20;;;;;;10354431;28;20218;-20
2021/03/18 10:03:59;;;;;;;5.03;3.07;;;22.00;44.20;;;;;;10368604;28;20222;-22
2021/03/18 10:09:23;;;;;;;6.87;3.50;;;22.00;44.20;;;;;;10364659;28;20253;-22
2021/03/18 10:14:53;;;;;;;6.43;3.40;;;22.00;44.30;;;;;;10368796;28;20229;-24
2021/03/18 10:20:18;;;;;;;6.13;3.37;;;21.90;44.30;;;;;;10370274;28;20277;-22
2021/03/18 10:25:40;;;;;;;5.13;3.20;;;22.00;44.50;;;;;;10367920;28;20222;-22
2021/03/18 10:31:06;;;;;;;6.50;3.20;;;22.00;44.40;;;;;;10366890;28;20205;-22
2021/03/18 10:36:35;;;;;;;4.70;2.97;;;22.00;44.30;;;;;;10364423;28;20207;-22
2021/03/18 10:41:59;;;;;;;3.73;2.67;;;22.00;44.20;;;;;;10339462;28;20207;-23
2021/03/18 10:47:22;;;;;;;5.43;2.77;;;21.90;44.20;;;;;;10363737;28;20737;-22
2021/03/18 10:52:53;;;;;;;7.50;3.10;;;21.90;44.60;;;;;;10370366;28;20202;-22
2021/03/18 10:58:17;;;;;;;4.30;3.20;;;22.00;44.30;;;;;;10348991;28;20199;-22
2021/03/18 11:03:41;;;;;;;5.23;3.07;;;22.00;44.20;;;;;;10408569;28;20692;-22
2021/03/18 11:09:03;;;;;;;4.30;2.73;;;22.00;44.20;;;;;;10410531;28;20206;-24
2021/03/18 11:14:27;;;;;;;4.70;3.00;;;22.00;44.20;;;;;;10418322;28;20304;-21
2021/03/18 11:19:49;;;;;;;4.67;2.80;;;22.00;44.20;;;;;;10392101;28;20199;-22
2021/03/18 11:25:12;;;;;;;3.77;2.70;;;22.10;44.20;;;;;;10337210;28;20306;-22
2021/03/18 11:30:35;;;;;;;4.33;2.87;;;22.10;44.10;;;;;;10368933;28;20248;-22
2021/03/18 11:36:00;;;;;;;6.27;2.87;;;22.20;44.20;;;;;;10375929;28;20597;-22
2021/03/18 11:41:21;;;;;;;4.17;2.50;;;22.20;44.70;;;;;;10368666;28;20202;-22
2021/03/18 11:46:44;;;;;;;4.77;2.87;;;22.20;44.00;;;;;;10345848;28;20233;-22
2021/03/18 11:52:07;;;;;;;3.37;2.23;;;22.20;44.00;;;;;;10377828;28;20206;-24
2021/03/18 11:57:29;;;;;;;4.87;2.77;;;21.70;44.70;;;;;;10372741;28;20222;-22
2021/03/18 12:02:50;;;;;;;4.67;2.70;;;21.70;45.40;;;;;;10368419;28;20210;-22
2021/03/18 12:08:13;;;;;;;3.73;2.40;;;21.70;44.80;;;;;;10335208;28;20589;-23
2021/03/18 12:13:36;;;;;;;3.07;2.07;;;21.70;44.80;;;;;;10361324;28;20732;-24
2021/03/18 12:18:58;;;;;;;3.53;2.37;;;21.70;44.90;;;;;;10374623;28;20670;-22
2021/03/18 12:24:20;;;;;;;4.30;2.40;;;21.70;44.90;;;;;;10373882;28;20222;-22
2021/03/18 12:29:42;;;;;;;4.10;2.70;;;21.60;45.40;;;;;;10347441;28;20248;-22
2021/03/18 12:35:05;;;;;;;4.00;2.70;;;21.60;44.60;;;;;;10374383;28;20221;-22
2021/03/18 12:40:28;;;;;;;4.20;2.57;;;21.40;45.10;;;;;;10370107;28;20205;-22
2021/03/18 12:45:50;;;;;;;4.17;2.07;;;21.20;45.70;;;;;;10363818;28;20222;-22
2021/03/18 12:51:12;;;;;;;3.30;2.33;;;21.10;46.30;;;;;;10376627;28;20195;-22
2021/03/18 12:56:35;;;;;;;3.73;2.60;;;21.00;46.40;;;;;;10341285;28;20242;-22
2021/03/18 13:01:56;;;;;;;2.83;2.53;;;20.90;46.60;;;;;;10358550;28;20198;-22
2021/03/18 13:07:18;;;;;;;2.70;2.20;;;20.90;46.80;;;;;;10365516;28;20222;-22
2021/03/18 13:12:41;;;;;;;3.53;2.13;;;20.80;46.90;;;;;;10363311;28;20198;-21
2021/03/18 13:18:02;;;;;;;4.00;2.67;;;21.10;46.60;;;;;;10389228;28;20210;-22
2021/03/18 13:23:24;;;;;;;4.63;2.67;;;21.30;46.30;;;;;;10367532;28;20701;-22
2021/03/18 13:28:46;;;;;;;3.37;2.37;;;21.50;46.10;;;;;;10368361;28;20198;-21
2021/03/18 13:34:08;;;;;;;2.83;2.30;;;21.60;45.90;;;;;;10358235;28;20221;-22
2021/03/18 13:39:30;;;;;;;6.00;2.63;;;21.70;45.90;;;;;;10366847;28;20203;-22
2021/03/18 13:44:52;;;;;;;2.20;1.97;;;21.80;45.70;;;;;;10369534;28;20234;-19
2021/03/18 13:50:15;;;;;;;4.90;2.80;;;21.90;45.60;;;;;;10366893;28;20213;-22
2021/03/18 13:55:38;;;;;;;3.37;2.30;;;21.90;45.50;;;;;;10368588;28;20550;-21
2021/03/18 14:01:01;;;;;;;4.17;2.50;;;21.90;45.40;;;;;;10335785;28;20285;-22
2021/03/18 14:06:23;;;;;;;3.93;2.17;;;22.00;45.40;;;;;;10367115;28;20252;-22
2021/03/18 14:11:44;;;;;;;2.90;2.00;;;22.00;45.30;;;;;;10366056;28;20203;-21
2021/03/18 14:17:07;;;;;;;3.00;2.30;;;22.00;45.30;;;;;;10360517;28;20214;-22
2021/03/18 14:22:28;;;;;;;4.30;2.10;;;22.00;45.30;;;;;;10367210;28;20199;-21
2021/03/18 14:27:51;;;;;;;3.60;2.03;;;22.00;45.10;;;;;;10368307;28;20966;-21
2021/03/18 14:33:14;;;;;;;3.13;2.17;;;22.10;45.00;;;;;;10367615;28;20206;-25
2021/03/18 14:38:36;;;;;;;2.30;2.00;;;22.30;44.80;;;;;;10367132;28;20202;-20
2021/03/18 14:43:57;;;;;;;2.67;2.03;;;22.30;44.50;;;;;;10366094;28;20221;-23
2021/03/18 14:49:20;;;;;;;2.53;1.80;;;22.40;44.50;;;;;;10352026;28;20277;-22
2021/03/18 14:54:41;;;;;;;1.93;1.83;;;22.20;44.20;;;;;;10366553;28;20625;-22
2021/03/18 15:00:05;;;;;;;2.87;2.20;;;21.90;44.90;;;;;;10362486;28;20199;-21
2021/03/18 15:05:27;;;;;;;4.23;1.80;;;21.90;45.20;;;;;;10324769;28;20751;-21
2021/03/18 15:10:49;;;;;;;3.40;1.60;;;21.90;45.00;;;;;;10323353;28;20195;-21
2021/03/18 15:16:10;;;;;;;2.83;1.90;;;21.90;45.00;;;;;;10349361;28;20217;-21
2021/03/18 15:21:33;;;;;;;2.30;1.83;;;21.90;45.00;;;;;;10363548;28;20202;-21
2021/03/18 15:26:55;;;;;;;3.33;2.00;;;21.90;45.10;;;;;;10352210;28;20278;-20
2021/03/18 15:32:16;;;;;;;2.87;2.10;;;21.90;45.10;;;;;;10348588;28;20206;-23
2021/03/18 15:37:40;;;;;;;2.10;1.90;;;21.90;45.00;;;;;;10364856;28;20214;-22
2021/03/18 15:43:02;;;;;;;1.90;1.70;;;21.90;45.10;;;;;;10364832;28;20222;-19
2021/03/18 15:48:24;;;;;;;4.60;1.90;;;21.90;45.10;;;;;;10362703;28;20598;-22
2021/03/18 15:53:47;;;;;;;2.33;2.10;;;21.80;45.20;;;;;;10342304;28;566770;-21
2021/03/18 15:59:09;;;;;;;2.57;1.67;;;21.90;45.50;;;;;;10404542;23;20232;-23
2021/03/18 16:04:31;;;;;;;2.07;1.87;;;22.00;45.20;;;;;;10403372;28;20214;-22
2021/03/18 16:09:55;;;;;;;2.50;2.10;;;22.10;45.00;;;;;;10413588;28;20279;-22
2021/03/18 16:15:17;;;;;;;2.20;2.00;;;22.20;44.70;;;;;;10415046;28;20340;-22
2021/03/18 16:20:40;;;;;;;2.40;2.10;;;22.20;44.70;;;;;;10414196;28;20324;-22
2021/03/18 16:26:02;;;;;;;2.50;2.03;;;22.30;44.60;;;;;;10415433;28;20214;-22
2021/03/18 16:31:24;;;;;;;3.13;2.47;;;22.40;44.50;;;;;;10414589;28;20201;-22
2021/03/18 16:36:46;;;;;;;2.63;2.20;;;22.40;44.40;;;;;;10414173;28;20404;-28
2021/03/18 16:42:08;;;;;;;3.77;2.30;;;22.40;44.40;;;;;;10413131;28;20622;-22
2021/03/18 16:47:30;;;;;;;2.20;2.00;;;22.40;44.60;;;;;;10441004;28;20693;-23
2021/03/18 16:52:51;;;;;;;2.93;2.37;;;22.40;44.50;;;;;;10416539;28;20245;-22
2021/03/18 16:58:14;;;;;;;3.10;2.40;;;22.20;44.40;;;;;;10412785;28;20225;-22
2021/03/18 17:03:35;;;;;;;6.03;2.53;;;22.00;44.90;;;;;;10411837;28;20218;-23
2021/03/18 17:08:57;;;;;;;2.90;2.53;;;21.80;45.20;;;;;;10411321;28;20639;-22
2021/03/18 17:14:20;;;;;;;3.20;2.90;;;21.70;45.30;;;;;;10389040;28;20198;-22
2021/03/18 17:19:41;;;;;;;3.67;2.80;;;21.70;45.40;;;;;;10380982;28;20221;-22
2021/03/18 17:25:04;;;;;;;4.60;3.00;;;21.60;45.50;;;;;;10409960;28;20251;-22
2021/03/18 17:30:28;;;;;;;5.50;3.07;;;21.60;45.60;;;;;;10411170;28;20234;-22
2021/03/18 17:35:49;;;;;;;4.27;2.43;;;21.50;45.50;;;;;;10411639;28;20197;-22
2021/03/18 17:41:11;;;;;;;3.37;3.07;;;21.50;46.30;;;;;;10411255;28;20204;-22
2021/03/18 17:46:33;;;;;;;4.27;3.07;;;21.40;45.90;;;;;;10407843;28;20221;-22
2021/03/18 17:51:55;;;;;;;3.90;2.90;;;21.30;46.00;;;;;;10410937;28;20193;-22
2021/03/18 17:57:17;;;;;;;3.80;2.70;;;21.30;46.20;;;;;;10410723;28;20221;-22
2021/03/18 18:02:39;;;;;;;4.00;2.93;;;21.20;46.30;;;;;;10410874;28;20202;-22
2021/03/18 18:08:02;;;;;;;4.47;3.20;;;21.10;46.50;;;;;;10411103;28;20237;-22
2021/03/18 18:13:27;;;;;;;3.17;2.77;;;21.10;47.20;;;;;;10404420;28;20260;-22
2021/03/18 18:18:51;;;;;;;3.97;2.80;;;21.10;46.60;;;;;;10409120;28;20206;-22
2021/03/18 18:24:15;;;;;;;3.47;2.90;;;21.00;46.70;;;;;;10409426;28;20677;-22
2021/03/18 18:29:37;;;;;;;3.23;2.80;;;21.00;46.90;;;;;;10407814;28;20281;-22
2021/03/18 18:35:00;;;;;;;2.60;2.40;;;20.90;46.80;;;;;;10409508;28;20194;-22
2021/03/18 18:40:25;;;;;;;3.67;2.90;;;20.90;47.00;;;;;;10408185;28;20228;-22
2021/03/18 18:45:46;;;;;;;3.30;3.00;;;20.80;47.20;;;;;;10409207;28;20213;-22
2021/03/18 18:51:09;;;;;;;3.73;3.20;;;20.70;47.50;;;;;;10412428;28;20212;-22
2021/03/18 18:56:32;;;;;;;3.90;3.17;;;20.60;47.80;;;;;;10412534;28;20209;-22
2021/03/18 19:01:54;;;;;;;3.73;3.33;;;20.50;47.90;;;;;;10406915;28;20608;-22
2021/03/18 19:07:16;;;;;;;4.00;3.47;;;20.40;48.20;;;;;;10406761;28;20215;-22
2021/03/18 19:12:38;;;;;;;4.87;3.80;;;20.40;48.80;;;;;;10405065;28;20194;-22
2021/03/18 19:18:01;;;;;;;4.50;3.20;;;20.40;48.20;;;;;;10392397;28;20273;-22
2021/03/18 19:23:26;;;;;;;4.30;3.37;;;20.50;48.20;;;;;;10370292;28;20205;-23
2021/03/18 19:28:47;;;;;;;4.73;3.80;;;20.50;48.10;;;;;;10368862;28;20605;-22
2021/03/18 19:34:09;;;;;;;4.80;3.97;;;20.50;48.00;;;;;;10411778;28;20202;-22
2021/03/18 19:39:32;;;;;;;4.53;3.70;;;20.50;48.50;;;;;;10410732;28;20235;-22
2021/03/18 19:44:53;;;;;;;4.13;3.67;;;20.50;47.90;;;;;;10416580;28;20283;-22
2021/03/18 19:50:18;;;;;;;4.83;4.07;;;20.50;47.90;;;;;;10416455;28;20218;-22
2021/03/18 19:55:42;;;;;;;4.60;3.93;;;20.50;47.90;;;;;;10415825;28;20197;-22
2021/03/18 20:01:04;;;;;;;4.67;4.10;;;20.50;47.90;;;;;;10415871;28;20766;-22
2021/03/18 20:06:25;;;;;;;6.17;4.30;;;20.50;48.00;;;;;;10415116;28;20218;-22
2021/03/18 20:11:48;;;;;;;4.90;3.63;;;20.50;47.90;;;;;;10413775;28;20263;-22
2021/03/18 20:17:09;;;;;;;4.83;4.13;;;20.50;47.90;;;;;;10415100;28;20209;-22
2021/03/18 20:22:31;;;;;;;4.93;4.20;;;20.50;48.00;;;;;;10414269;28;20197;-22
2021/03/18 20:27:54;;;;;;;4.80;3.70;;;20.50;48.00;;;;;;10414430;28;20279;-22
2021/03/18 20:33:20;;;;;;;5.47;4.13;;;20.50;48.60;;;;;;10414693;28;20609;-21
2021/03/18 20:38:42;;;;;;;3.97;3.57;;;20.50;48.00;;;;;;10414560;28;20299;-21
2021/03/18 20:44:05;;;;;;;4.90;3.90;;;20.50;47.90;;;;;;10413055;28;20208;-22
2021/03/18 20:49:27;;;;;;;4.67;3.80;;;20.50;47.90;;;;;;10414794;28;20225;-22
2021/03/18 20:54:48;;;;;;;4.53;3.90;;;20.50;47.90;;;;;;10414165;28;20201;-21
2021/03/18 21:00:12;;;;;;;4.77;3.70;;;20.50;47.90;;;;;;10413790;28;20230;-22
2021/03/18 21:05:34;;;;;;;4.30;3.90;;;20.50;47.90;;;;;;10414350;28;20221;-23
2021/03/18 21:10:56;;;;;;;4.00;3.60;;;20.50;48.00;;;;;;10413071;28;20233;-22
2021/03/18 21:16:18;;;;;;;4.30;3.90;;;20.50;48.00;;;;;;10418855;28;20205;-23
2021/03/18 21:21:40;;;;;;;4.77;3.70;;;20.50;48.00;;;;;;10412759;28;20259;-22
2021/03/18 21:27:02;;;;;;;4.50;3.73;;;20.50;47.90;;;;;;10441029;28;20217;-22
2021/03/18 21:32:27;;;;;;;4.40;4.00;;;20.50;47.80;;;;;;10456393;28;20197;-22
2021/03/18 21:37:50;;;;;;;4.73;4.13;;;20.50;47.70;;;;;;10431621;28;20210;-22
2021/03/18 21:43:11;;;;;;;5.83;4.40;;;20.50;47.80;;;;;;10393830;28;20677;-21
2021/03/18 21:48:34;;;;;;;4.97;4.30;;;20.40;47.90;;;;;;10412105;28;20239;-22
2021/03/18 21:53:56;;;;;;;5.03;4.00;;;20.30;48.10;;;;;;10411389;28;20209;-23
2021/03/18 21:59:17;;;;;;;4.80;4.03;;;20.30;48.10;;;;;;10432041;22;20230;-21
2021/03/18 22:04:40;;;;;;;4.10;3.73;;;20.20;48.30;;;;;;10411959;28;20217;-21
2021/03/18 22:10:02;;;;;;;5.50;4.10;;;20.20;48.50;;;;;;10405191;28;20215;-21
2021/03/18 22:15:24;;;;;;;4.53;4.03;;;20.10;48.40;;;;;;10421922;28;20588;-21
2021/03/18 22:20:46;;;;;;;4.53;3.77;;;20.10;48.40;;;;;;10418527;28;20234;-21
2021/03/18 22:26:08;;;;;;;4.57;3.77;;;20.10;48.40;;;;;;10410680;28;20213;-21
2021/03/18 22:31:29;;;;;;;4.90;4.03;;;20.10;48.40;;;;;;10406794;28;20271;-21
2021/03/18 22:36:52;;;;;;;4.00;3.60;;;20.10;48.50;;;;;;10411002;28;20194;-21
2021/03/18 22:42:15;;;;;;;3.53;3.23;;;20.10;48.50;;;;;;10410445;28;20222;-21
2021/03/18 22:47:36;;;;;;;4.60;3.83;;;20.10;48.40;;;;;;10410998;28;20647;-21
2021/03/18 22:53:00;;;;;;;3.83;3.20;;;20.10;48.40;;;;;;10409748;28;20202;-22
2021/03/18 22:58:22;;;;;;;3.90;3.50;;;20.00;48.40;;;;;;10411458;28;20225;-24
2021/03/18 23:03:44;;;;;;;3.37;3.07;;;20.00;48.50;;;;;;10414358;28;20626;-21
2021/03/18 23:09:07;;;;;;;3.77;3.37;;;20.00;48.40;;;;;;10391663;28;20726;-21
2021/03/18 23:14:28;;;;;;;4.10;3.53;;;20.00;48.40;;;;;;10417779;28;20195;-20
2021/03/18 23:19:50;;;;;;;3.80;3.43;;;19.90;48.30;;;;;;10417060;28;20225;-21
2021/03/18 23:25:14;;;;;;;3.37;3.03;;;20.00;48.40;;;;;;10418417;28;20214;-21
2021/03/18 23:30:36;;;;;;;3.00;2.70;;;20.00;48.50;;;;;;10417150;28;20217;-22
2021/03/18 23:35:58;;;;;;;3.97;2.93;;;20.00;48.50;;;;;;10417978;28;20192;-21
2021/03/18 23:41:20;;;;;;;4.13;2.87;;;20.00;48.50;;;;;;10417650;28;20224;-21
2021/03/18 23:46:42;;;;;;;3.60;3.00;;;20.00;48.50;;;;;;10415340;28;20216;-21
2021/03/18 23:52:05;;;;;;;3.53;2.83;;;20.00;48.40;;;;;;10418237;28;20278;-21
2021/03/18 23:57:27;;;;;;;3.00;2.67;;;19.90;48.30;;;;;;10416414;28;20228;-21
